DLH117P EDDH-EDDN
Flight info
| Callsign | DLH117P |
|---|---|
| Flight time | 0h 53m |
| Altitude | 35000 |
| Route | AMLUH2G/33 AMLUH M852 DENIX DCT ZUCKA DCT GALMA M736 TABAT Q244 NIBIL/N0404F230 Q244 PIVIR PIVIR1V |
| Aircraft | A320/M-SDE3FGHIRWY/LB1 |
Departure
| Time | 2026-04-22 14:00 |
|---|---|
| Airport | Hamburg Helmut Schmidt Airport (EDDH) |
Arrival
| Time | 2026-04-22 14:53 |
|---|---|
| Airport | Nuremberg Airport (EDDN) |
| Time | Latitude | Longitude | Altitude | Speed | Heading |
|---|---|---|---|---|---|
| 2026-04-22 13:11 | 53.63208 | 10.00365 | 51 ft | 0 kts | 87° |
| 2026-04-22 13:51 | 53.63207 | 10.00344 | 51 ft | 2 kts | 87° |
| 2026-04-22 13:52 | 53.63206 | 10.00317 | 51 ft | 2 kts | 87° |
| 2026-04-22 13:52 | 53.63205 | 10.00289 | 51 ft | 2 kts | 87° |
| 2026-04-22 13:52 | 53.63206 | 10.00261 | 51 ft | 2 kts | 88° |
| 2026-04-22 13:52 | 53.63205 | 10.00232 | 51 ft | 2 kts | 88° |
| 2026-04-22 13:53 | 53.63205 | 10.00204 | 51 ft | 2 kts | 113° |
| 2026-04-22 13:53 | 53.63215 | 10.00182 | 45 ft | 2 kts | 157° |
| 2026-04-22 13:53 | 53.63219 | 10.00179 | 51 ft | 0 kts | 170° |
| 2026-04-22 13:56 | 53.63171 | 10.00189 | 51 ft | 15 kts | 176° |
| 2026-04-22 13:56 | 53.63106 | 10.00192 | 51 ft | 8 kts | 180° |
| 2026-04-22 13:57 | 53.63057 | 10.00165 | 51 ft | 7 kts | 207° |
| 2026-04-22 13:57 | 53.63021 | 10.00130 | 51 ft | 5 kts | 211° |
| 2026-04-22 13:57 | 53.62988 | 10.00095 | 50 ft | 7 kts | 213° |
| 2026-04-22 13:57 | 53.62950 | 10.00051 | 48 ft | 6 kts | 217° |
| 2026-04-22 13:58 | 53.62920 | 9.99987 | 50 ft | 10 kts | 240° |
| 2026-04-22 13:58 | 53.62886 | 9.99876 | 49 ft | 12 kts | 243° |
| 2026-04-22 13:58 | 53.62881 | 9.99741 | 49 ft | 13 kts | 309° |
| 2026-04-22 13:58 | 53.62905 | 9.99712 | 50 ft | 0 kts | 330° |
| 2026-04-22 13:59 | 53.62962 | 9.99656 | 49 ft | 40 kts | 330° |
| 2026-04-22 13:59 | 53.63425 | 9.99263 | 51 ft | 106 kts | 332° |
| 2026-04-22 13:59 | 53.64558 | 9.98267 | 85 ft | 166 kts | 331° |
| 2026-04-22 14:00 | 53.65264 | 9.97663 | 373 ft | 174 kts | 329° |
| 2026-04-22 14:00 | 53.66340 | 9.96754 | 1223 ft | 172 kts | 331° |
| 2026-04-22 14:00 | 53.67439 | 9.95810 | 1813 ft | 186 kts | 331° |
| 2026-04-22 14:00 | 53.68675 | 9.94852 | 2422 ft | 203 kts | 344° |
| 2026-04-22 14:01 | 53.70092 | 9.94661 | 3280 ft | 206 kts | 357° |
| 2026-04-22 14:01 | 53.71529 | 9.94694 | 4217 ft | 208 kts | 3° |
| 2026-04-22 14:01 | 53.72889 | 9.95594 | 4812 ft | 219 kts | 39° |
| 2026-04-22 14:01 | 53.73669 | 9.97789 | 4954 ft | 222 kts | 68° |
| 2026-04-22 14:02 | 53.74079 | 10.00305 | 4977 ft | 223 kts | 75° |
| 2026-04-22 14:02 | 53.74096 | 10.02930 | 4982 ft | 226 kts | 97° |
| 2026-04-22 14:02 | 53.73574 | 10.05601 | 4990 ft | 260 kts | 115° |
| 2026-04-22 14:02 | 53.72642 | 10.08315 | 4981 ft | 271 kts | 118° |
| 2026-04-22 14:03 | 53.71691 | 10.11099 | 5075 ft | 278 kts | 117° |
| 2026-04-22 14:03 | 53.70730 | 10.13957 | 6018 ft | 279 kts | 117° |
| 2026-04-22 14:03 | 53.69757 | 10.16799 | 6998 ft | 281 kts | 122° |
| 2026-04-22 14:03 | 53.68468 | 10.19308 | 7903 ft | 287 kts | 137° |
| 2026-04-22 14:04 | 53.66809 | 10.21146 | 8767 ft | 292 kts | 154° |
| 2026-04-22 14:04 | 53.64867 | 10.22233 | 9632 ft | 297 kts | 164° |
| 2026-04-22 14:04 | 53.62860 | 10.23133 | 10473 ft | 301 kts | 163° |
| 2026-04-22 14:04 | 53.60777 | 10.24076 | 10889 ft | 321 kts | 163° |
| 2026-04-22 14:05 | 53.58616 | 10.25063 | 11153 ft | 344 kts | 163° |
| 2026-04-22 14:05 | 53.56234 | 10.26156 | 11510 ft | 362 kts | 163° |
| 2026-04-22 14:05 | 53.51289 | 10.28431 | 12912 ft | 373 kts | 163° |
| 2026-04-22 14:06 | 53.48771 | 10.29579 | 13653 ft | 377 kts | 163° |
| 2026-04-22 14:06 | 53.46225 | 10.30737 | 14361 ft | 381 kts | 163° |
| 2026-04-22 14:06 | 53.43649 | 10.31911 | 15008 ft | 386 kts | 163° |
| 2026-04-22 14:06 | 53.41046 | 10.33092 | 15662 ft | 390 kts | 163° |
| 2026-04-22 14:07 | 53.38415 | 10.34278 | 16343 ft | 392 kts | 163° |
| 2026-04-22 14:07 | 53.35767 | 10.35467 | 17003 ft | 395 kts | 163° |
| 2026-04-22 14:07 | 53.33099 | 10.36665 | 17633 ft | 399 kts | 163° |
| 2026-04-22 14:07 | 53.30437 | 10.37860 | 18255 ft | 402 kts | 163° |
| 2026-04-22 14:08 | 53.27718 | 10.39078 | 18832 ft | 406 kts | 163° |
| 2026-04-22 14:08 | 53.24972 | 10.40306 | 19350 ft | 409 kts | 163° |
| 2026-04-22 14:08 | 53.22205 | 10.41542 | 19896 ft | 412 kts | 163° |
| 2026-04-22 14:08 | 53.19428 | 10.42780 | 20442 ft | 414 kts | 163° |
| 2026-04-22 14:09 | 53.16632 | 10.44022 | 20981 ft | 417 kts | 163° |
| 2026-04-22 14:09 | 53.13823 | 10.45267 | 21513 ft | 419 kts | 163° |
| 2026-04-22 14:09 | 53.10974 | 10.46439 | 22036 ft | 422 kts | 165° |
| 2026-04-22 14:09 | 53.08122 | 10.47427 | 22541 ft | 425 kts | 167° |
| 2026-04-22 14:10 | 53.05198 | 10.48314 | 23040 ft | 428 kts | 168° |
| 2026-04-22 14:10 | 53.02243 | 10.49153 | 23534 ft | 431 kts | 168° |
| 2026-04-22 14:10 | 52.99269 | 10.49991 | 24019 ft | 434 kts | 168° |
| 2026-04-22 14:10 | 52.96287 | 10.50856 | 24426 ft | 436 kts | 167° |
| 2026-04-22 14:11 | 52.93298 | 10.51756 | 24827 ft | 438 kts | 167° |
| 2026-04-22 14:11 | 52.90295 | 10.52684 | 25238 ft | 440 kts | 167° |
| 2026-04-22 14:11 | 52.87275 | 10.53629 | 25639 ft | 443 kts | 167° |
| 2026-04-22 14:11 | 52.84243 | 10.54579 | 26030 ft | 445 kts | 167° |
| 2026-04-22 14:12 | 52.81233 | 10.55517 | 26429 ft | 447 kts | 167° |
| 2026-04-22 14:12 | 52.78164 | 10.56468 | 26818 ft | 449 kts | 167° |
| 2026-04-22 14:12 | 52.75077 | 10.57418 | 27162 ft | 452 kts | 167° |
| 2026-04-22 14:12 | 52.71970 | 10.58367 | 27522 ft | 455 kts | 167° |
| 2026-04-22 14:13 | 52.68850 | 10.59317 | 27899 ft | 457 kts | 166° |
| 2026-04-22 14:13 | 52.65725 | 10.60269 | 28326 ft | 457 kts | 166° |
| 2026-04-22 14:13 | 52.62597 | 10.61223 | 28706 ft | 458 kts | 166° |
| 2026-04-22 14:13 | 52.59453 | 10.62182 | 29026 ft | 460 kts | 166° |
| 2026-04-22 14:14 | 52.56296 | 10.63144 | 29347 ft | 463 kts | 166° |
| 2026-04-22 14:14 | 52.53124 | 10.64108 | 29728 ft | 463 kts | 166° |
| 2026-04-22 14:14 | 52.49957 | 10.65066 | 30211 ft | 462 kts | 166° |
| 2026-04-22 14:14 | 52.47082 | 10.65934 | 30587 ft | 461 kts | 166° |
| 2026-04-22 14:15 | 52.43926 | 10.66888 | 30943 ft | 461 kts | 166° |
| 2026-04-22 14:15 | 52.40769 | 10.67845 | 31296 ft | 461 kts | 166° |
| 2026-04-22 14:15 | 52.37616 | 10.68799 | 31638 ft | 461 kts | 166° |
| 2026-04-22 14:15 | 52.34459 | 10.69755 | 31987 ft | 461 kts | 166° |
| 2026-04-22 14:16 | 52.31300 | 10.70708 | 32337 ft | 461 kts | 166° |
| 2026-04-22 14:16 | 52.28141 | 10.71659 | 32683 ft | 461 kts | 166° |
| 2026-04-22 14:16 | 52.24979 | 10.72607 | 32990 ft | 463 kts | 166° |
| 2026-04-22 14:16 | 52.21851 | 10.73549 | 33309 ft | 463 kts | 166° |
| 2026-04-22 14:17 | 52.18678 | 10.74502 | 33642 ft | 463 kts | 166° |
| 2026-04-22 14:17 | 52.15502 | 10.75453 | 33983 ft | 464 kts | 166° |
| 2026-04-22 14:17 | 52.12330 | 10.76397 | 34323 ft | 464 kts | 166° |
| 2026-04-22 14:17 | 52.09155 | 10.77343 | 34617 ft | 464 kts | 166° |
| 2026-04-22 14:18 | 52.05976 | 10.78291 | 34908 ft | 464 kts | 166° |
| 2026-04-22 14:18 | 52.02803 | 10.79239 | 35203 ft | 464 kts | 166° |
| 2026-04-22 14:18 | 51.99617 | 10.80190 | 35331 ft | 466 kts | 167° |
| 2026-04-22 14:19 | 51.93222 | 10.82076 | 35342 ft | 467 kts | 167° |
| 2026-04-22 14:19 | 51.86822 | 10.83954 | 35347 ft | 467 kts | 167° |
| 2026-04-22 14:20 | 51.77228 | 10.86775 | 35352 ft | 467 kts | 167° |
| 2026-04-22 14:20 | 51.70943 | 10.89267 | 35345 ft | 463 kts | 154° |
| 2026-04-22 14:21 | 51.65524 | 10.94473 | 35338 ft | 454 kts | 136° |
| 2026-04-22 14:21 | 51.63273 | 10.98035 | 35337 ft | 449 kts | 127° |
| 2026-04-22 14:22 | 51.57464 | 11.09752 | 35335 ft | 449 kts | 125° |
| 2026-04-22 14:22 | 51.53515 | 11.17672 | 35355 ft | 460 kts | 125° |
| 2026-04-22 14:23 | 51.51501 | 11.21718 | 35340 ft | 467 kts | 125° |
| 2026-04-22 14:23 | 51.47387 | 11.29988 | 35352 ft | 480 kts | 125° |
| 2026-04-22 14:23 | 51.45315 | 11.34155 | 35822 ft | 474 kts | 125° |
| 2026-04-22 14:24 | 51.43270 | 11.38259 | 36345 ft | 468 kts | 125° |
| 2026-04-22 14:24 | 51.41248 | 11.42309 | 36873 ft | 462 kts | 126° |
| 2026-04-22 14:24 | 51.39029 | 11.46016 | 37136 ft | 465 kts | 141° |
| 2026-04-22 14:24 | 51.36219 | 11.48386 | 37137 ft | 466 kts | 161° |
| 2026-04-22 14:25 | 51.33010 | 11.49080 | 37135 ft | 470 kts | 182° |
| 2026-04-22 14:25 | 51.26528 | 11.47346 | 36704 ft | 472 kts | 189° |
| 2026-04-22 14:25 | 51.23275 | 11.46748 | 36030 ft | 469 kts | 176° |
| 2026-04-22 14:26 | 51.20023 | 11.47051 | 35518 ft | 468 kts | 173° |
| 2026-04-22 14:26 | 51.16769 | 11.47397 | 35335 ft | 470 kts | 174° |
| 2026-04-22 14:26 | 51.13503 | 11.47716 | 35340 ft | 472 kts | 174° |
| 2026-04-22 14:27 | 51.06937 | 11.48308 | 35345 ft | 472 kts | 174° |
| 2026-04-22 14:27 | 51.00388 | 11.48903 | 35347 ft | 471 kts | 174° |
| 2026-04-22 14:28 | 50.93828 | 11.49532 | 35345 ft | 472 kts | 174° |
| 2026-04-22 14:28 | 50.87261 | 11.50162 | 35344 ft | 472 kts | 174° |
| 2026-04-22 14:29 | 50.80699 | 11.50788 | 35339 ft | 472 kts | 174° |
| 2026-04-22 14:29 | 50.74179 | 11.51410 | 35341 ft | 472 kts | 174° |
| 2026-04-22 14:30 | 50.67609 | 11.52027 | 35327 ft | 473 kts | 174° |
| 2026-04-22 14:30 | 50.61024 | 11.52647 | 35084 ft | 474 kts | 174° |
| 2026-04-22 14:30 | 50.57730 | 11.52957 | 34843 ft | 474 kts | 174° |
| 2026-04-22 14:31 | 50.54437 | 11.53311 | 34607 ft | 474 kts | 173° |
| 2026-04-22 14:31 | 50.51162 | 11.53838 | 34376 ft | 473 kts | 171° |
| 2026-04-22 14:31 | 50.47894 | 11.54509 | 34105 ft | 473 kts | 169° |
| 2026-04-22 14:31 | 50.44642 | 11.55259 | 33809 ft | 472 kts | 169° |
| 2026-04-22 14:32 | 50.41389 | 11.56027 | 33536 ft | 472 kts | 169° |
| 2026-04-22 14:32 | 50.38143 | 11.56771 | 33261 ft | 472 kts | 169° |
| 2026-04-22 14:32 | 50.34898 | 11.57479 | 32662 ft | 470 kts | 169° |
| 2026-04-22 14:32 | 50.31662 | 11.58148 | 31899 ft | 469 kts | 169° |
| 2026-04-22 14:33 | 50.28426 | 11.58793 | 31179 ft | 468 kts | 169° |
| 2026-04-22 14:33 | 50.25199 | 11.59426 | 30405 ft | 467 kts | 169° |
| 2026-04-22 14:33 | 50.22012 | 11.60055 | 29461 ft | 467 kts | 169° |
| 2026-04-22 14:33 | 50.18789 | 11.60700 | 28460 ft | 468 kts | 169° |
| 2026-04-22 14:34 | 50.15573 | 11.61355 | 27730 ft | 464 kts | 169° |
| 2026-04-22 14:34 | 50.12395 | 11.62005 | 27024 ft | 458 kts | 169° |
| 2026-04-22 14:34 | 50.09243 | 11.62641 | 26327 ft | 454 kts | 170° |
| 2026-04-22 14:34 | 50.06088 | 11.62872 | 25671 ft | 454 kts | 179° |
| 2026-04-22 14:35 | 50.02935 | 11.62551 | 24988 ft | 452 kts | 182° |
| 2026-04-22 14:35 | 49.99812 | 11.62178 | 24349 ft | 449 kts | 182° |
| 2026-04-22 14:35 | 49.96727 | 11.61525 | 23699 ft | 447 kts | 189° |
| 2026-04-22 14:35 | 49.93733 | 11.60236 | 23012 ft | 445 kts | 198° |
| 2026-04-22 14:36 | 49.90886 | 11.58377 | 22340 ft | 442 kts | 202° |
| 2026-04-22 14:36 | 49.88090 | 11.56426 | 21715 ft | 438 kts | 202° |
| 2026-04-22 14:36 | 49.85323 | 11.54511 | 21136 ft | 434 kts | 202° |
| 2026-04-22 14:36 | 49.82574 | 11.52616 | 20557 ft | 430 kts | 202° |
| 2026-04-22 14:37 | 49.79887 | 11.50758 | 19984 ft | 426 kts | 202° |
| 2026-04-22 14:37 | 49.77191 | 11.48892 | 19432 ft | 423 kts | 202° |
| 2026-04-22 14:37 | 49.74519 | 11.47036 | 18893 ft | 419 kts | 202° |
| 2026-04-22 14:37 | 49.71869 | 11.45195 | 18333 ft | 416 kts | 202° |
| 2026-04-22 14:38 | 49.69238 | 11.43370 | 17747 ft | 413 kts | 202° |
| 2026-04-22 14:38 | 49.66629 | 11.41560 | 17180 ft | 409 kts | 202° |
| 2026-04-22 14:38 | 49.64088 | 11.39626 | 16619 ft | 407 kts | 211° |
| 2026-04-22 14:38 | 49.61878 | 11.36920 | 16102 ft | 404 kts | 226° |
| 2026-04-22 14:39 | 49.60172 | 11.33517 | 15578 ft | 400 kts | 240° |
| 2026-04-22 14:39 | 49.59056 | 11.29685 | 15065 ft | 395 kts | 254° |
| 2026-04-22 14:39 | 49.58536 | 11.25571 | 14554 ft | 389 kts | 268° |
| 2026-04-22 14:40 | 49.58892 | 11.18708 | 13676 ft | 381 kts | 281° |
| 2026-04-22 14:40 | 49.59417 | 11.13380 | 12944 ft | 378 kts | 281° |
| 2026-04-22 14:40 | 49.59807 | 11.09385 | 12402 ft | 375 kts | 281° |
| 2026-04-22 14:40 | 49.60195 | 11.05417 | 11859 ft | 373 kts | 281° |
| 2026-04-22 14:41 | 49.60582 | 11.01493 | 11167 ft | 366 kts | 281° |
| 2026-04-22 14:41 | 49.60960 | 10.97637 | 10152 ft | 363 kts | 281° |
| 2026-04-22 14:41 | 49.61319 | 10.93945 | 9868 ft | 338 kts | 280° |
| 2026-04-22 14:41 | 49.61648 | 10.90500 | 9729 ft | 313 kts | 280° |
| 2026-04-22 14:42 | 49.61953 | 10.87274 | 9362 ft | 298 kts | 280° |
| 2026-04-22 14:42 | 49.62252 | 10.84147 | 8787 ft | 292 kts | 280° |
| 2026-04-22 14:42 | 49.62549 | 10.81058 | 8203 ft | 292 kts | 280° |
| 2026-04-22 14:42 | 49.62846 | 10.77982 | 7856 ft | 288 kts | 280° |
| 2026-04-22 14:43 | 49.63138 | 10.74940 | 7474 ft | 286 kts | 280° |
| 2026-04-22 14:43 | 49.63427 | 10.71919 | 7148 ft | 282 kts | 280° |
| 2026-04-22 14:43 | 49.63711 | 10.68932 | 6768 ft | 281 kts | 279° |
| 2026-04-22 14:43 | 49.63993 | 10.65962 | 6343 ft | 279 kts | 280° |
| 2026-04-22 14:44 | 49.64273 | 10.62999 | 5959 ft | 278 kts | 279° |
| 2026-04-22 14:44 | 49.64545 | 10.60055 | 5572 ft | 276 kts | 277° |
| 2026-04-22 14:44 | 49.64401 | 10.57133 | 5208 ft | 274 kts | 253° |
| 2026-04-22 14:44 | 49.63522 | 10.54585 | 4795 ft | 274 kts | 229° |
| 2026-04-22 14:45 | 49.62040 | 10.52778 | 4383 ft | 271 kts | 204° |
| 2026-04-22 14:45 | 49.60243 | 10.52023 | 4047 ft | 266 kts | 185° |
| 2026-04-22 14:45 | 49.58389 | 10.51844 | 4005 ft | 266 kts | 171° |
| 2026-04-22 14:45 | 49.56655 | 10.52742 | 4013 ft | 263 kts | 144° |
| 2026-04-22 14:46 | 49.55364 | 10.54656 | 4008 ft | 257 kts | 120° |
| 2026-04-22 14:46 | 49.54735 | 10.57096 | 4013 ft | 237 kts | 98° |
| 2026-04-22 14:46 | 49.54508 | 10.59520 | 4011 ft | 222 kts | 96° |
| 2026-04-22 14:46 | 49.54284 | 10.61832 | 4012 ft | 217 kts | 96° |
| 2026-04-22 14:47 | 49.54065 | 10.64141 | 4008 ft | 216 kts | 96° |
| 2026-04-22 14:47 | 49.53848 | 10.66434 | 4006 ft | 213 kts | 96° |
| 2026-04-22 14:47 | 49.53641 | 10.68619 | 4011 ft | 200 kts | 96° |
| 2026-04-22 14:47 | 49.53443 | 10.70707 | 4015 ft | 196 kts | 96° |
| 2026-04-22 14:48 | 49.53248 | 10.72774 | 4026 ft | 195 kts | 95° |
| 2026-04-22 14:48 | 49.53056 | 10.74792 | 4014 ft | 192 kts | 95° |
| 2026-04-22 14:48 | 49.52862 | 10.76829 | 4017 ft | 192 kts | 96° |
| 2026-04-22 14:48 | 49.52669 | 10.78864 | 4014 ft | 193 kts | 95° |
| 2026-04-22 14:49 | 49.52473 | 10.80912 | 4019 ft | 194 kts | 96° |
| 2026-04-22 14:49 | 49.52275 | 10.82976 | 3963 ft | 195 kts | 96° |
| 2026-04-22 14:49 | 49.52078 | 10.85035 | 3775 ft | 191 kts | 96° |
| 2026-04-22 14:49 | 49.51884 | 10.87049 | 3523 ft | 189 kts | 95° |
| 2026-04-22 14:50 | 49.51694 | 10.89020 | 3266 ft | 181 kts | 96° |
| 2026-04-22 14:50 | 49.51513 | 10.90893 | 3030 ft | 171 kts | 96° |
| 2026-04-22 14:50 | 49.51348 | 10.92598 | 2817 ft | 156 kts | 94° |
| 2026-04-22 14:50 | 49.51194 | 10.94184 | 2599 ft | 144 kts | 95° |
| 2026-04-22 14:51 | 49.51049 | 10.95685 | 2407 ft | 139 kts | 95° |
| 2026-04-22 14:51 | 49.50907 | 10.97154 | 2221 ft | 137 kts | 93° |
| 2026-04-22 14:51 | 49.50766 | 10.98607 | 2031 ft | 137 kts | 94° |
| 2026-04-22 14:51 | 49.50624 | 11.00064 | 1830 ft | 138 kts | 96° |
| 2026-04-22 14:52 | 49.50485 | 11.01526 | 1627 ft | 138 kts | 96° |
| 2026-04-22 14:52 | 49.50341 | 11.02973 | 1415 ft | 136 kts | 96° |
| 2026-04-22 14:52 | 49.50201 | 11.04411 | 1239 ft | 134 kts | 95° |
| 2026-04-22 14:52 | 49.50065 | 11.05826 | 1067 ft | 134 kts | 97° |
| 2026-04-22 14:53 | 49.49938 | 11.07131 | 1023 ft | 106 kts | 98° |
| 2026-04-22 14:53 | 49.49853 | 11.07990 | 1032 ft | 57 kts | 99° |
| 2026-04-22 14:53 | 49.49818 | 11.08329 | 1030 ft | 8 kts | 98° |
| 2026-04-22 14:53 | 49.49803 | 11.08490 | 1025 ft | 31 kts | 98° |
| 2026-04-22 14:54 | 49.49767 | 11.08889 | 1035 ft | 36 kts | 99° |
| 2026-04-22 14:54 | 49.49735 | 11.09182 | 1041 ft | 25 kts | 99° |
| 2026-04-22 14:54 | 49.49708 | 11.09441 | 1043 ft | 23 kts | 98° |
| 2026-04-22 14:54 | 49.49642 | 11.09558 | 1044 ft | 12 kts | 189° |
| 2026-04-22 14:55 | 49.49582 | 11.09463 | 1042 ft | 13 kts | 234° |
| 2026-04-22 14:55 | 49.49544 | 11.09382 | 1042 ft | 6 kts | 240° |
| 2026-04-22 14:55 | 49.49536 | 11.09353 | 1042 ft | 0 kts | 251° |
| 2026-04-22 14:57 | 49.49535 | 11.09347 | 1042 ft | 4 kts | 252° |
| 2026-04-22 14:57 | 49.49532 | 11.09304 | 1030 ft | 7 kts | 267° |
| 2026-04-22 14:57 | 49.49535 | 11.09228 | 1039 ft | 8 kts | 278° |
| 2026-04-22 14:57 | 49.49546 | 11.09139 | 1038 ft | 9 kts | 281° |
| 2026-04-22 14:58 | 49.49556 | 11.09058 | 1037 ft | 8 kts | 279° |
| 2026-04-22 14:58 | 49.49563 | 11.08972 | 1037 ft | 8 kts | 277° |
| 2026-04-22 14:58 | 49.49572 | 11.08886 | 1037 ft | 9 kts | 278° |
| 2026-04-22 14:58 | 49.49582 | 11.08781 | 1035 ft | 10 kts | 278° |
| 2026-04-22 14:59 | 49.49592 | 11.08673 | 1034 ft | 10 kts | 279° |
| 2026-04-22 14:59 | 49.49602 | 11.08568 | 1033 ft | 10 kts | 278° |
| 2026-04-22 14:59 | 49.49613 | 11.08464 | 1032 ft | 10 kts | 278° |
| 2026-04-22 14:59 | 49.49594 | 11.08376 | 1032 ft | 8 kts | 213° |
| 2026-04-22 15:00 | 49.49553 | 11.08349 | 1032 ft | 5 kts | 213° |
| 2026-04-22 15:00 | 49.49539 | 11.08248 | 1031 ft | 13 kts | 277° |
| 2026-04-22 15:00 | 49.49553 | 11.08108 | 1029 ft | 13 kts | 278° |
| 2026-04-22 15:00 | 49.49565 | 11.07988 | 1030 ft | 9 kts | 279° |
| 2026-04-22 15:01 | 49.49572 | 11.07917 | 1030 ft | 6 kts | 279° |
| 2026-04-22 15:01 | 49.49577 | 11.07850 | 1030 ft | 9 kts | 269° |
| 2026-04-22 15:01 | 49.49543 | 11.07800 | 1029 ft | 7 kts | 197° |
| 2026-04-22 15:01 | 49.49522 | 11.07793 | 1028 ft | 0 kts | 189° |
| 2026-04-22 15:02 | 49.49517 | 11.07792 | 1028 ft | 0 kts | 190° |
| 2026-04-22 15:02 | 49.49516 | 11.07791 | 1028 ft | 0 kts | 190° |